sensor_id;sensor_type;location;lat;lon;timestamp;P1;durP1;ratioP1;P2;durP2;ratioP2
34645;SDS011;20857;47.808;12.482;2022-08-19T00:00:24;14.68;;;11.55;;
34645;SDS011;20857;47.808;12.482;2022-08-19T00:02:50;12.95;;;11.60;;
34645;SDS011;20857;47.808;12.482;2022-08-19T00:05:16;12.60;;;11.30;;
34645;SDS011;20857;47.808;12.482;2022-08-19T00:07:42;14.52;;;12.88;;
34645;SDS011;20857;47.808;12.482;2022-08-19T00:10:09;16.27;;;11.80;;
34645;SDS011;20857;47.808;12.482;2022-08-19T00:12:37;14.77;;;12.48;;
34645;SDS011;20857;47.808;12.482;2022-08-19T00:15:04;14.50;;;11.60;;
34645;SDS011;20857;47.808;12.482;2022-08-19T00:17:32;13.23;;;11.75;;
34645;SDS011;20857;47.808;12.482;2022-08-19T00:19:57;14.13;;;12.13;;
34645;SDS011;20857;47.808;12.482;2022-08-19T00:22:23;17.67;;;12.23;;
34645;SDS011;20857;47.808;12.482;2022-08-19T00:24:49;13.20;;;11.18;;
34645;SDS011;20857;47.808;12.482;2022-08-19T00:27:14;14.95;;;12.52;;
34645;SDS011;20857;47.808;12.482;2022-08-19T00:29:41;12.65;;;11.35;;
34645;SDS011;20857;47.808;12.482;2022-08-19T00:32:08;14.10;;;11.25;;
34645;SDS011;20857;47.808;12.482;2022-08-19T00:34:35;13.60;;;11.32;;
34645;SDS011;20857;47.808;12.482;2022-08-19T00:37:01;13.63;;;10.88;;
34645;SDS011;20857;47.808;12.482;2022-08-19T00:39:26;11.80;;;10.60;;
34645;SDS011;20857;47.808;12.482;2022-08-19T00:41:52;17.25;;;12.07;;
34645;SDS011;20857;47.808;12.482;2022-08-19T00:44:19;14.15;;;11.10;;
34645;SDS011;20857;47.808;12.482;2022-08-19T00:46:50;13.02;;;10.80;;
34645;SDS011;20857;47.808;12.482;2022-08-19T00:51:53;15.35;;;11.88;;
34645;SDS011;20857;47.808;12.482;2022-08-19T00:54:39;14.80;;;11.35;;
34645;SDS011;20857;47.808;12.482;2022-08-19T00:57:06;13.85;;;11.52;;
34645;SDS011;20857;47.808;12.482;2022-08-19T01:02:03;19.92;;;12.10;;
34645;SDS011;20857;47.808;12.482;2022-08-19T01:04:29;15.32;;;11.85;;
34645;SDS011;20857;47.808;12.482;2022-08-19T01:06:55;13.73;;;10.75;;
34645;SDS011;20857;47.808;12.482;2022-08-19T01:09:21;15.35;;;11.15;;
34645;SDS011;20857;47.808;12.482;2022-08-19T01:11:46;13.82;;;11.55;;
34645;SDS011;20857;47.808;12.482;2022-08-19T01:14:12;16.75;;;12.25;;
34645;SDS011;20857;47.808;12.482;2022-08-19T01:16:40;16.50;;;12.48;;
34645;SDS011;20857;47.808;12.482;2022-08-19T01:19:09;12.82;;;11.43;;
34645;SDS011;20857;47.808;12.482;2022-08-19T01:24:35;16.92;;;11.98;;
34645;SDS011;20857;47.808;12.482;2022-08-19T01:27:03;16.58;;;11.82;;
34645;SDS011;20857;47.808;12.482;2022-08-19T01:29:30;14.45;;;11.55;;
34645;SDS011;20857;47.808;12.482;2022-08-19T01:31:55;15.85;;;12.23;;
34645;SDS011;20857;47.808;12.482;2022-08-19T01:34:21;15.25;;;11.70;;
34645;SDS011;20857;47.808;12.482;2022-08-19T01:36:48;14.18;;;10.52;;
34645;SDS011;20857;47.808;12.482;2022-08-19T01:39:18;11.70;;;10.48;;
34645;SDS011;20857;47.808;12.482;2022-08-19T01:41:47;11.02;;;9.65;;
34645;SDS011;20857;47.808;12.482;2022-08-19T01:44:13;13.75;;;10.10;;
34645;SDS011;20857;47.808;12.482;2022-08-19T01:46:41;11.95;;;9.50;;
34645;SDS011;20857;47.808;12.482;2022-08-19T01:49:08;9.88;;;8.88;;
34645;SDS011;20857;47.808;12.482;2022-08-19T01:51:34;11.48;;;7.97;;
34645;SDS011;20857;47.808;12.482;2022-08-19T01:54:00;9.88;;;7.50;;
34645;SDS011;20857;47.808;12.482;2022-08-19T01:56:26;14.18;;;8.90;;
34645;SDS011;20857;47.808;12.482;2022-08-19T01:59:02;12.65;;;8.38;;
34645;SDS011;20857;47.808;12.482;2022-08-19T02:01:41;8.95;;;8.05;;
34645;SDS011;20857;47.808;12.482;2022-08-19T02:04:06;10.75;;;7.93;;
34645;SDS011;20857;47.808;12.482;2022-08-19T02:06:32;8.65;;;6.93;;
34645;SDS011;20857;47.808;12.482;2022-08-19T02:08:58;8.80;;;7.47;;
34645;SDS011;20857;47.808;12.482;2022-08-19T02:11:26;9.27;;;7.20;;
34645;SDS011;20857;47.808;12.482;2022-08-19T02:13:54;8.48;;;7.65;;
34645;SDS011;20857;47.808;12.482;2022-08-19T02:16:19;9.02;;;7.40;;
34645;SDS011;20857;47.808;12.482;2022-08-19T02:18:46;9.30;;;8.40;;
34645;SDS011;20857;47.808;12.482;2022-08-19T02:21:14;11.07;;;8.82;;
34645;SDS011;20857;47.808;12.482;2022-08-19T02:23:40;9.00;;;8.00;;
34645;SDS011;20857;47.808;12.482;2022-08-19T02:26:07;7.70;;;6.90;;
34645;SDS011;20857;47.808;12.482;2022-08-19T02:28:33;8.80;;;6.95;;
34645;SDS011;20857;47.808;12.482;2022-08-19T02:30:58;7.80;;;6.97;;
34645;SDS011;20857;47.808;12.482;2022-08-19T02:33:25;8.55;;;6.05;;
34645;SDS011;20857;47.808;12.482;2022-08-19T02:35:51;6.53;;;5.68;;
34645;SDS011;20857;47.808;12.482;2022-08-19T02:38:17;6.38;;;5.80;;
34645;SDS011;20857;47.808;12.482;2022-08-19T02:40:53;8.48;;;5.65;;
34645;SDS011;20857;47.808;12.482;2022-08-19T02:43:25;5.70;;;5.20;;
34645;SDS011;20857;47.808;12.482;2022-08-19T02:45:52;6.75;;;4.90;;
34645;SDS011;20857;47.808;12.482;2022-08-19T02:48:19;8.52;;;5.40;;
34645;SDS011;20857;47.808;12.482;2022-08-19T02:50:46;6.47;;;5.88;;
34645;SDS011;20857;47.808;12.482;2022-08-19T02:53:13;6.30;;;5.53;;
34645;SDS011;20857;47.808;12.482;2022-08-19T02:55:43;6.57;;;5.50;;
34645;SDS011;20857;47.808;12.482;2022-08-19T03:00:40;6.85;;;5.13;;
34645;SDS011;20857;47.808;12.482;2022-08-19T03:03:10;9.07;;;5.10;;
34645;SDS011;20857;47.808;12.482;2022-08-19T03:05:36;6.55;;;5.28;;
34645;SDS011;20857;47.808;12.482;2022-08-19T03:08:02;8.63;;;5.97;;
34645;SDS011;20857;47.808;12.482;2022-08-19T03:10:29;9.10;;;6.13;;
34645;SDS011;20857;47.808;12.482;2022-08-19T03:12:54;8.77;;;5.70;;
34645;SDS011;20857;47.808;12.482;2022-08-19T03:15:20;8.45;;;6.20;;
34645;SDS011;20857;47.808;12.482;2022-08-19T03:17:45;6.47;;;5.72;;
34645;SDS011;20857;47.808;12.482;2022-08-19T03:20:11;10.57;;;6.00;;
34645;SDS011;20857;47.808;12.482;2022-08-19T03:22:36;6.90;;;5.20;;
34645;SDS011;20857;47.808;12.482;2022-08-19T03:25:03;6.10;;;5.30;;
34645;SDS011;20857;47.808;12.482;2022-08-19T03:27:29;4.15;;;3.75;;
34645;SDS011;20857;47.808;12.482;2022-08-19T03:29:54;4.60;;;3.88;;
34645;SDS011;20857;47.808;12.482;2022-08-19T03:32:20;5.28;;;4.38;;
34645;SDS011;20857;47.808;12.482;2022-08-19T03:34:46;5.97;;;4.25;;
34645;SDS011;20857;47.808;12.482;2022-08-19T03:37:12;5.65;;;4.18;;
34645;SDS011;20857;47.808;12.482;2022-08-19T03:39:38;3.95;;;2.83;;
34645;SDS011;20857;47.808;12.482;2022-08-19T03:42:05;3.95;;;2.78;;
34645;SDS011;20857;47.808;12.482;2022-08-19T03:44:31;4.90;;;3.17;;
34645;SDS011;20857;47.808;12.482;2022-08-19T03:49:29;3.67;;;3.00;;
34645;SDS011;20857;47.808;12.482;2022-08-19T03:51:57;3.35;;;3.05;;
34645;SDS011;20857;47.808;12.482;2022-08-19T03:54:25;3.88;;;3.30;;
34645;SDS011;20857;47.808;12.482;2022-08-19T03:56:53;4.70;;;3.55;;
34645;SDS011;20857;47.808;12.482;2022-08-19T03:59:26;3.47;;;3.17;;
34645;SDS011;20857;47.808;12.482;2022-08-19T04:01:58;5.28;;;3.08;;
34645;SDS011;20857;47.808;12.482;2022-08-19T04:04:26;5.30;;;3.00;;
34645;SDS011;20857;47.808;12.482;2022-08-19T04:06:51;4.53;;;2.35;;
34645;SDS011;20857;47.808;12.482;2022-08-19T04:09:17;3.55;;;2.63;;
34645;SDS011;20857;47.808;12.482;2022-08-19T04:11:48;2.83;;;2.50;;
34645;SDS011;20857;47.808;12.482;2022-08-19T04:14:21;4.72;;;2.40;;
34645;SDS011;20857;47.808;12.482;2022-08-19T04:16:48;5.65;;;2.58;;
34645;SDS011;20857;47.808;12.482;2022-08-19T04:19:15;3.38;;;2.50;;
34645;SDS011;20857;47.808;12.482;2022-08-19T04:21:43;2.78;;;2.38;;
34645;SDS011;20857;47.808;12.482;2022-08-19T04:24:12;3.42;;;2.97;;
34645;SDS011;20857;47.808;12.482;2022-08-19T04:26:38;3.30;;;2.80;;
34645;SDS011;20857;47.808;12.482;2022-08-19T04:29:05;5.45;;;3.00;;
34645;SDS011;20857;47.808;12.482;2022-08-19T04:31:33;6.90;;;2.70;;
34645;SDS011;20857;47.808;12.482;2022-08-19T04:34:03;3.75;;;2.97;;
34645;SDS011;20857;47.808;12.482;2022-08-19T04:36:32;4.35;;;3.03;;
34645;SDS011;20857;47.808;12.482;2022-08-19T04:39:01;3.58;;;3.25;;
34645;SDS011;20857;47.808;12.482;2022-08-19T04:41:29;5.38;;;3.78;;
34645;SDS011;20857;47.808;12.482;2022-08-19T04:44:13;4.53;;;3.63;;
34645;SDS011;20857;47.808;12.482;2022-08-19T04:46:39;4.35;;;3.85;;
34645;SDS011;20857;47.808;12.482;2022-08-19T04:49:05;6.97;;;3.85;;
34645;SDS011;20857;47.808;12.482;2022-08-19T04:51:33;4.97;;;4.35;;
34645;SDS011;20857;47.808;12.482;2022-08-19T04:54:00;8.05;;;6.32;;
34645;SDS011;20857;47.808;12.482;2022-08-19T04:56:27;25.35;;;14.55;;
34645;SDS011;20857;47.808;12.482;2022-08-19T04:58:53;19.92;;;10.50;;
34645;SDS011;20857;47.808;12.482;2022-08-19T05:01:24;19.38;;;11.43;;
34645;SDS011;20857;47.808;12.482;2022-08-19T05:03:51;25.38;;;15.98;;
34645;SDS011;20857;47.808;12.482;2022-08-19T05:06:19;28.17;;;16.45;;
34645;SDS011;20857;47.808;12.482;2022-08-19T05:08:46;19.08;;;10.77;;
34645;SDS011;20857;47.808;12.482;2022-08-19T05:11:16;10.35;;;6.43;;
34645;SDS011;20857;47.808;12.482;2022-08-19T05:13:50;6.93;;;3.65;;
34645;SDS011;20857;47.808;12.482;2022-08-19T05:16:17;3.60;;;3.28;;
34645;SDS011;20857;47.808;12.482;2022-08-19T05:18:45;3.47;;;3.13;;
34645;SDS011;20857;47.808;12.482;2022-08-19T05:21:30;4.88;;;3.90;;
34645;SDS011;20857;47.808;12.482;2022-08-19T05:24:15;3.50;;;3.20;;
34645;SDS011;20857;47.808;12.482;2022-08-19T05:26:42;4.38;;;3.13;;
34645;SDS011;20857;47.808;12.482;2022-08-19T05:31:40;6.47;;;3.72;;
34645;SDS011;20857;47.808;12.482;2022-08-19T05:34:06;6.68;;;3.53;;
34645;SDS011;20857;47.808;12.482;2022-08-19T05:36:39;4.60;;;3.95;;
34645;SDS011;20857;47.808;12.482;2022-08-19T05:39:07;3.85;;;3.50;;
34645;SDS011;20857;47.808;12.482;2022-08-19T05:41:35;4.60;;;4.00;;
34645;SDS011;20857;47.808;12.482;2022-08-19T05:44:05;5.28;;;4.70;;
34645;SDS011;20857;47.808;12.482;2022-08-19T05:46:33;5.47;;;4.10;;
34645;SDS011;20857;47.808;12.482;2022-08-19T05:49:00;5.22;;;4.72;;
34645;SDS011;20857;47.808;12.482;2022-08-19T05:51:26;8.07;;;5.35;;
34645;SDS011;20857;47.808;12.482;2022-08-19T05:53:51;5.65;;;5.00;;
34645;SDS011;20857;47.808;12.482;2022-08-19T05:56:17;8.68;;;5.72;;
34645;SDS011;20857;47.808;12.482;2022-08-19T05:58:43;5.88;;;4.75;;
34645;SDS011;20857;47.808;12.482;2022-08-19T06:01:11;6.70;;;4.80;;
34645;SDS011;20857;47.808;12.482;2022-08-19T06:03:39;11.15;;;4.53;;
34645;SDS011;20857;47.808;12.482;2022-08-19T06:06:05;7.85;;;4.28;;
34645;SDS011;20857;47.808;12.482;2022-08-19T06:08:32;6.28;;;3.95;;
34645;SDS011;20857;47.808;12.482;2022-08-19T06:10:58;9.25;;;4.70;;
34645;SDS011;20857;47.808;12.482;2022-08-19T06:13:38;8.65;;;4.32;;
34645;SDS011;20857;47.808;12.482;2022-08-19T06:16:03;5.55;;;4.00;;
34645;SDS011;20857;47.808;12.482;2022-08-19T06:18:29;10.60;;;4.47;;
34645;SDS011;20857;47.808;12.482;2022-08-19T06:20:55;5.38;;;4.30;;
34645;SDS011;20857;47.808;12.482;2022-08-19T06:23:20;7.35;;;4.03;;
34645;SDS011;20857;47.808;12.482;2022-08-19T06:25:46;7.00;;;3.70;;
34645;SDS011;20857;47.808;12.482;2022-08-19T06:28:12;5.55;;;4.00;;
34645;SDS011;20857;47.808;12.482;2022-08-19T06:30:38;7.95;;;4.45;;
34645;SDS011;20857;47.808;12.482;2022-08-19T06:33:03;9.15;;;4.07;;
34645;SDS011;20857;47.808;12.482;2022-08-19T06:35:29;6.75;;;4.65;;
34645;SDS011;20857;47.808;12.482;2022-08-19T06:37:56;5.82;;;3.80;;
34645;SDS011;20857;47.808;12.482;2022-08-19T06:40:21;6.32;;;4.00;;
34645;SDS011;20857;47.808;12.482;2022-08-19T06:42:48;5.05;;;3.80;;
34645;SDS011;20857;47.808;12.482;2022-08-19T06:45:13;4.72;;;3.17;;
34645;SDS011;20857;47.808;12.482;2022-08-19T06:47:39;4.57;;;3.88;;
34645;SDS011;20857;47.808;12.482;2022-08-19T06:50:08;4.63;;;3.08;;
34645;SDS011;20857;47.808;12.482;2022-08-19T06:52:34;4.32;;;2.97;;
34645;SDS011;20857;47.808;12.482;2022-08-19T06:55:01;3.25;;;2.95;;
34645;SDS011;20857;47.808;12.482;2022-08-19T06:57:27;5.70;;;3.20;;
34645;SDS011;20857;47.808;12.482;2022-08-19T06:59:57;3.72;;;2.92;;
34645;SDS011;20857;47.808;12.482;2022-08-19T07:02:24;3.90;;;3.20;;
34645;SDS011;20857;47.808;12.482;2022-08-19T07:04:51;3.20;;;2.90;;
34645;SDS011;20857;47.808;12.482;2022-08-19T07:07:17;4.55;;;3.30;;
34645;SDS011;20857;47.808;12.482;2022-08-19T07:09:45;3.58;;;2.80;;
34645;SDS011;20857;47.808;12.482;2022-08-19T07:12:13;4.30;;;3.65;;
34645;SDS011;20857;47.808;12.482;2022-08-19T07:14:41;5.27;;;3.37;;
34645;SDS011;20857;47.808;12.482;2022-08-19T07:17:09;7.35;;;3.47;;
34645;SDS011;20857;47.808;12.482;2022-08-19T07:19:36;3.08;;;2.40;;
34645;SDS011;20857;47.808;12.482;2022-08-19T07:22:03;4.90;;;2.72;;
34645;SDS011;20857;47.808;12.482;2022-08-19T07:24:30;4.25;;;2.80;;
34645;SDS011;20857;47.808;12.482;2022-08-19T07:26:57;3.00;;;2.70;;
34645;SDS011;20857;47.808;12.482;2022-08-19T07:29:27;2.92;;;2.45;;
34645;SDS011;20857;47.808;12.482;2022-08-19T07:31:54;3.50;;;2.90;;
34645;SDS011;20857;47.808;12.482;2022-08-19T07:34:21;7.70;;;2.72;;
34645;SDS011;20857;47.808;12.482;2022-08-19T07:36:48;3.03;;;2.72;;
34645;SDS011;20857;47.808;12.482;2022-08-19T07:39:16;2.78;;;2.58;;
34645;SDS011;20857;47.808;12.482;2022-08-19T07:41:47;3.47;;;2.58;;
34645;SDS011;20857;47.808;12.482;2022-08-19T07:44:14;3.05;;;2.75;;
34645;SDS011;20857;47.808;12.482;2022-08-19T07:46:41;2.75;;;2.55;;
34645;SDS011;20857;47.808;12.482;2022-08-19T07:49:13;3.75;;;3.17;;
34645;SDS011;20857;47.808;12.482;2022-08-19T07:51:45;3.28;;;2.40;;
34645;SDS011;20857;47.808;12.482;2022-08-19T07:54:12;3.38;;;2.75;;
34645;SDS011;20857;47.808;12.482;2022-08-19T07:56:39;2.60;;;2.40;;
34645;SDS011;20857;47.808;12.482;2022-08-19T07:59:04;3.25;;;2.88;;
34645;SDS011;20857;47.808;12.482;2022-08-19T08:01:30;2.97;;;2.67;;
34645;SDS011;20857;47.808;12.482;2022-08-19T08:03:56;2.97;;;2.70;;
34645;SDS011;20857;47.808;12.482;2022-08-19T08:06:42;2.88;;;2.63;;
34645;SDS011;20857;47.808;12.482;2022-08-19T08:09:31;5.07;;;3.35;;
34645;SDS011;20857;47.808;12.482;2022-08-19T08:12:01;3.33;;;2.90;;
34645;SDS011;20857;47.808;12.482;2022-08-19T08:14:36;3.78;;;3.35;;
34645;SDS011;20857;47.808;12.482;2022-08-19T08:17:13;4.75;;;3.40;;
34645;SDS011;20857;47.808;12.482;2022-08-19T08:19:41;4.35;;;3.63;;
34645;SDS011;20857;47.808;12.482;2022-08-19T08:22:07;5.18;;;4.28;;
34645;SDS011;20857;47.808;12.482;2022-08-19T08:24:54;5.55;;;4.25;;
34645;SDS011;20857;47.808;12.482;2022-08-19T08:27:23;4.63;;;3.72;;
34645;SDS011;20857;47.808;12.482;2022-08-19T08:29:49;6.13;;;4.10;;
34645;SDS011;20857;47.808;12.482;2022-08-19T08:32:14;5.53;;;4.10;;
34645;SDS011;20857;47.808;12.482;2022-08-19T08:34:40;4.57;;;3.63;;
34645;SDS011;20857;47.808;12.482;2022-08-19T08:37:06;5.47;;;3.75;;
34645;SDS011;20857;47.808;12.482;2022-08-19T08:39:32;5.05;;;3.58;;
34645;SDS011;20857;47.808;12.482;2022-08-19T08:42:01;4.53;;;3.80;;
34645;SDS011;20857;47.808;12.482;2022-08-19T08:44:40;4.25;;;3.85;;
34645;SDS011;20857;47.808;12.482;2022-08-19T08:47:17;5.30;;;3.72;;
34645;SDS011;20857;47.808;12.482;2022-08-19T08:54:48;4.28;;;3.88;;
34645;SDS011;20857;47.808;12.482;2022-08-19T08:57:35;10.68;;;3.95;;
34645;SDS011;20857;47.808;12.482;2022-08-19T09:00:21;5.35;;;3.97;;
34645;SDS011;20857;47.808;12.482;2022-08-19T09:02:47;4.00;;;3.38;;
34645;SDS011;20857;47.808;12.482;2022-08-19T09:05:13;4.43;;;4.03;;
34645;SDS011;20857;47.808;12.482;2022-08-19T09:07:42;4.00;;;3.35;;
34645;SDS011;20857;47.808;12.482;2022-08-19T09:15:28;5.32;;;3.08;;
34645;SDS011;20857;47.808;12.482;2022-08-19T09:18:00;3.08;;;2.78;;
34645;SDS011;20857;47.808;12.482;2022-08-19T09:20:27;2.78;;;2.58;;
34645;SDS011;20857;47.808;12.482;2022-08-19T09:22:53;3.80;;;2.78;;
34645;SDS011;20857;47.808;12.482;2022-08-19T09:25:20;4.60;;;3.63;;
34645;SDS011;20857;47.808;12.482;2022-08-19T09:27:50;5.45;;;3.85;;
34645;SDS011;20857;47.808;12.482;2022-08-19T09:30:23;5.40;;;3.60;;
34645;SDS011;20857;47.808;12.482;2022-08-19T09:32:50;5.13;;;3.33;;
34645;SDS011;20857;47.808;12.482;2022-08-19T09:35:23;5.03;;;3.92;;
34645;SDS011;20857;47.808;12.482;2022-08-19T09:37:50;4.05;;;3.60;;
34645;SDS011;20857;47.808;12.482;2022-08-19T09:40:16;3.75;;;3.38;;
34645;SDS011;20857;47.808;12.482;2022-08-19T09:42:43;4.07;;;3.67;;
34645;SDS011;20857;47.808;12.482;2022-08-19T09:45:11;4.55;;;3.40;;
34645;SDS011;20857;47.808;12.482;2022-08-19T09:47:37;4.18;;;3.78;;
34645;SDS011;20857;47.808;12.482;2022-08-19T09:50:06;4.25;;;3.47;;
34645;SDS011;20857;47.808;12.482;2022-08-19T09:52:33;3.80;;;3.37;;
34645;SDS011;20857;47.808;12.482;2022-08-19T09:55:02;5.60;;;4.28;;
34645;SDS011;20857;47.808;12.482;2022-08-19T09:57:28;5.03;;;4.13;;
34645;SDS011;20857;47.808;12.482;2022-08-19T09:59:54;4.20;;;3.80;;
34645;SDS011;20857;47.808;12.482;2022-08-19T10:02:19;4.95;;;3.67;;
34645;SDS011;20857;47.808;12.482;2022-08-19T10:04:45;4.68;;;3.90;;
34645;SDS011;20857;47.808;12.482;2022-08-19T10:07:30;4.10;;;3.70;;
34645;SDS011;20857;47.808;12.482;2022-08-19T10:09:56;6.28;;;3.53;;
34645;SDS011;20857;47.808;12.482;2022-08-19T10:12:21;3.90;;;3.50;;
34645;SDS011;20857;47.808;12.482;2022-08-19T10:14:47;4.10;;;3.65;;
34645;SDS011;20857;47.808;12.482;2022-08-19T10:17:13;3.60;;;3.30;;
34645;SDS011;20857;47.808;12.482;2022-08-19T10:19:39;4.68;;;3.28;;
34645;SDS011;20857;47.808;12.482;2022-08-19T10:22:06;4.05;;;3.50;;
34645;SDS011;20857;47.808;12.482;2022-08-19T10:24:32;7.47;;;3.67;;
34645;SDS011;20857;47.808;12.482;2022-08-19T10:26:59;4.00;;;3.60;;
34645;SDS011;20857;47.808;12.482;2022-08-19T10:29:28;6.10;;;3.80;;
34645;SDS011;20857;47.808;12.482;2022-08-19T10:31:54;4.85;;;4.35;;
34645;SDS011;20857;47.808;12.482;2022-08-19T10:34:20;4.95;;;4.45;;
34645;SDS011;20857;47.808;12.482;2022-08-19T10:36:46;4.60;;;4.20;;
34645;SDS011;20857;47.808;12.482;2022-08-19T10:39:12;4.95;;;4.32;;
34645;SDS011;20857;47.808;12.482;2022-08-19T10:41:38;5.45;;;4.78;;
34645;SDS011;20857;47.808;12.482;2022-08-19T10:44:06;4.35;;;3.95;;
34645;SDS011;20857;47.808;12.482;2022-08-19T10:46:35;3.30;;;3.00;;
34645;SDS011;20857;47.808;12.482;2022-08-19T10:49:03;5.97;;;3.78;;
34645;SDS011;20857;47.808;12.482;2022-08-19T10:51:30;4.28;;;3.88;;
34645;SDS011;20857;47.808;12.482;2022-08-19T10:54:15;4.38;;;3.97;;
34645;SDS011;20857;47.808;12.482;2022-08-19T10:56:41;5.30;;;4.80;;
34645;SDS011;20857;47.808;12.482;2022-08-19T10:59:16;6.43;;;5.40;;
34645;SDS011;20857;47.808;12.482;2022-08-19T11:01:44;7.25;;;5.72;;
34645;SDS011;20857;47.808;12.482;2022-08-19T11:04:10;6.00;;;5.43;;
34645;SDS011;20857;47.808;12.482;2022-08-19T11:06:38;6.63;;;6.03;;
34645;SDS011;20857;47.808;12.482;2022-08-19T11:09:08;7.20;;;5.63;;
34645;SDS011;20857;47.808;12.482;2022-08-19T11:11:36;7.10;;;5.65;;
34645;SDS011;20857;47.808;12.482;2022-08-19T11:14:06;5.90;;;5.07;;
34645;SDS011;20857;47.808;12.482;2022-08-19T11:16:33;5.60;;;4.63;;
34645;SDS011;20857;47.808;12.482;2022-08-19T11:18:59;6.60;;;5.88;;
34645;SDS011;20857;47.808;12.482;2022-08-19T11:21:26;6.30;;;5.70;;
34645;SDS011;20857;47.808;12.482;2022-08-19T11:23:54;6.70;;;5.30;;
34645;SDS011;20857;47.808;12.482;2022-08-19T11:26:22;6.80;;;5.63;;
34645;SDS011;20857;47.808;12.482;2022-08-19T11:28:48;6.88;;;6.15;;
34645;SDS011;20857;47.808;12.482;2022-08-19T11:31:18;7.50;;;6.32;;
34645;SDS011;20857;47.808;12.482;2022-08-19T11:33:45;6.07;;;5.47;;
34645;SDS011;20857;47.808;12.482;2022-08-19T11:36:11;12.25;;;7.10;;
34645;SDS011;20857;47.808;12.482;2022-08-19T11:38:37;8.05;;;7.28;;
34645;SDS011;20857;47.808;12.482;2022-08-19T11:41:06;8.23;;;6.72;;
34645;SDS011;20857;47.808;12.482;2022-08-19T11:43:32;7.75;;;6.97;;
34645;SDS011;20857;47.808;12.482;2022-08-19T11:45:59;8.65;;;6.50;;
34645;SDS011;20857;47.808;12.482;2022-08-19T11:48:28;7.05;;;6.05;;
34645;SDS011;20857;47.808;12.482;2022-08-19T11:50:53;6.45;;;5.25;;
34645;SDS011;20857;47.808;12.482;2022-08-19T11:53:21;6.93;;;6.22;;
34645;SDS011;20857;47.808;12.482;2022-08-19T11:55:47;5.07;;;4.57;;
34645;SDS011;20857;47.808;12.482;2022-08-19T11:58:13;6.78;;;5.60;;
34645;SDS011;20857;47.808;12.482;2022-08-19T12:00:41;6.53;;;5.80;;
34645;SDS011;20857;47.808;12.482;2022-08-19T12:03:10;6.47;;;5.78;;
34645;SDS011;20857;47.808;12.482;2022-08-19T12:05:36;6.93;;;6.13;;
34645;SDS011;20857;47.808;12.482;2022-08-19T12:08:03;5.72;;;5.18;;
34645;SDS011;20857;47.808;12.482;2022-08-19T12:10:29;7.07;;;5.53;;
34645;SDS011;20857;47.808;12.482;2022-08-19T12:13:00;7.70;;;5.10;;
34645;SDS011;20857;47.808;12.482;2022-08-19T12:17:54;5.35;;;4.85;;
34645;SDS011;20857;47.808;12.482;2022-08-19T12:20:22;6.22;;;4.82;;
34645;SDS011;20857;47.808;12.482;2022-08-19T12:22:49;5.78;;;4.90;;
34645;SDS011;20857;47.808;12.482;2022-08-19T12:25:15;5.82;;;4.90;;
34645;SDS011;20857;47.808;12.482;2022-08-19T12:27:41;5.35;;;4.78;;
34645;SDS011;20857;47.808;12.482;2022-08-19T12:30:07;5.40;;;4.60;;
34645;SDS011;20857;47.808;12.482;2022-08-19T12:32:35;4.93;;;4.43;;
34645;SDS011;20857;47.808;12.482;2022-08-19T12:35:01;5.15;;;3.85;;
34645;SDS011;20857;47.808;12.482;2022-08-19T12:37:27;6.07;;;4.40;;
34645;SDS011;20857;47.808;12.482;2022-08-19T12:39:52;5.47;;;3.85;;
34645;SDS011;20857;47.808;12.482;2022-08-19T12:42:18;6.88;;;4.55;;
34645;SDS011;20857;47.808;12.482;2022-08-19T12:44:43;6.68;;;5.20;;
34645;SDS011;20857;47.808;12.482;2022-08-19T12:47:10;6.65;;;5.95;;
34645;SDS011;20857;47.808;12.482;2022-08-19T12:49:39;6.68;;;6.03;;
34645;SDS011;20857;47.808;12.482;2022-08-19T12:52:06;6.05;;;5.45;;
34645;SDS011;20857;47.808;12.482;2022-08-19T12:54:33;6.30;;;5.55;;
34645;SDS011;20857;47.808;12.482;2022-08-19T12:57:00;6.95;;;6.32;;
34645;SDS011;20857;47.808;12.482;2022-08-19T12:59:29;8.50;;;6.03;;
34645;SDS011;20857;47.808;12.482;2022-08-19T13:01:55;6.20;;;5.53;;
34645;SDS011;20857;47.808;12.482;2022-08-19T13:04:20;5.88;;;4.43;;
34645;SDS011;20857;47.808;12.482;2022-08-19T13:06:46;5.28;;;4.65;;
34645;SDS011;20857;47.808;12.482;2022-08-19T13:09:11;6.72;;;5.15;;
34645;SDS011;20857;47.808;12.482;2022-08-19T13:11:37;5.72;;;5.22;;
34645;SDS011;20857;47.808;12.482;2022-08-19T13:14:03;7.22;;;5.68;;
34645;SDS011;20857;47.808;12.482;2022-08-19T13:16:29;5.32;;;4.65;;
34645;SDS011;20857;47.808;12.482;2022-08-19T13:18:56;5.10;;;4.60;;
34645;SDS011;20857;47.808;12.482;2022-08-19T13:21:24;11.95;;;5.47;;
34645;SDS011;20857;47.808;12.482;2022-08-19T13:23:53;6.05;;;5.45;;
34645;SDS011;20857;47.808;12.482;2022-08-19T13:26:19;6.70;;;5.47;;
34645;SDS011;20857;47.808;12.482;2022-08-19T13:28:45;6.90;;;5.93;;
34645;SDS011;20857;47.808;12.482;2022-08-19T13:31:30;7.85;;;6.50;;
34645;SDS011;20857;47.808;12.482;2022-08-19T13:34:34;10.77;;;7.38;;
34645;SDS011;20857;47.808;12.482;2022-08-19T13:37:02;8.00;;;6.70;;
34645;SDS011;20857;47.808;12.482;2022-08-19T13:39:29;9.48;;;7.47;;
34645;SDS011;20857;47.808;12.482;2022-08-19T13:41:57;7.15;;;6.43;;
34645;SDS011;20857;47.808;12.482;2022-08-19T13:44:26;8.20;;;7.00;;
34645;SDS011;20857;47.808;12.482;2022-08-19T13:46:54;7.72;;;6.93;;
34645;SDS011;20857;47.808;12.482;2022-08-19T13:49:25;7.47;;;6.78;;
34645;SDS011;20857;47.808;12.482;2022-08-19T13:51:55;8.83;;;6.30;;
34645;SDS011;20857;47.808;12.482;2022-08-19T13:54:21;8.80;;;7.35;;
34645;SDS011;20857;47.808;12.482;2022-08-19T13:56:47;7.80;;;7.00;;
34645;SDS011;20857;47.808;12.482;2022-08-19T13:59:12;6.70;;;6.00;;
34645;SDS011;20857;47.808;12.482;2022-08-19T14:01:38;8.25;;;5.95;;
34645;SDS011;20857;47.808;12.482;2022-08-19T14:04:04;7.75;;;5.20;;
34645;SDS011;20857;47.808;12.482;2022-08-19T14:06:31;9.52;;;6.10;;
34645;SDS011;20857;47.808;12.482;2022-08-19T14:08:57;10.05;;;6.55;;
34645;SDS011;20857;47.808;12.482;2022-08-19T14:11:23;12.52;;;7.45;;
34645;SDS011;20857;47.808;12.482;2022-08-19T14:13:49;11.65;;;7.75;;
34645;SDS011;20857;47.808;12.482;2022-08-19T14:16:16;12.25;;;8.40;;
34645;SDS011;20857;47.808;12.482;2022-08-19T14:18:42;14.93;;;9.00;;
34645;SDS011;20857;47.808;12.482;2022-08-19T14:21:30;14.15;;;9.68;;
34645;SDS011;20857;47.808;12.482;2022-08-19T14:23:55;15.13;;;10.88;;
34645;SDS011;20857;47.808;12.482;2022-08-19T14:26:21;13.52;;;10.40;;
34645;SDS011;20857;47.808;12.482;2022-08-19T14:28:47;13.70;;;8.70;;
34645;SDS011;20857;47.808;12.482;2022-08-19T14:31:14;9.05;;;6.47;;
34645;SDS011;20857;47.808;12.482;2022-08-19T14:33:44;8.18;;;7.32;;
34645;SDS011;20857;47.808;12.482;2022-08-19T14:36:11;11.82;;;9.45;;
34645;SDS011;20857;47.808;12.482;2022-08-19T14:38:37;21.17;;;13.52;;
34645;SDS011;20857;47.808;12.482;2022-08-19T14:41:11;16.02;;;11.15;;
34645;SDS011;20857;47.808;12.482;2022-08-19T14:43:43;14.82;;;6.03;;
34645;SDS011;20857;47.808;12.482;2022-08-19T14:46:14;9.70;;;5.88;;
34645;SDS011;20857;47.808;12.482;2022-08-19T14:48:41;20.20;;;11.25;;
34645;SDS011;20857;47.808;12.482;2022-08-19T14:51:06;18.13;;;13.23;;
34645;SDS011;20857;47.808;12.482;2022-08-19T14:53:32;21.92;;;16.48;;
34645;SDS011;20857;47.808;12.482;2022-08-19T14:55:58;27.50;;;18.80;;
34645;SDS011;20857;47.808;12.482;2022-08-19T14:58:25;24.45;;;18.52;;
34645;SDS011;20857;47.808;12.482;2022-08-19T15:00:52;30.55;;;19.35;;